createdAt,value
2019-01-20T06:27:18.764Z,81.72
2019-01-20T06:31:18.719Z,82.03
2019-01-20T08:25:41.954Z,71.34
2019-01-20T08:26:41.941Z,71.76
2019-01-20T08:27:41.935Z,71.41
2019-01-20T08:28:41.940Z,70.78
2019-01-20T08:29:41.937Z,70.89
2019-01-20T08:30:41.942Z,70.55
2019-01-20T08:31:41.888Z,70.02
2019-01-20T08:32:41.886Z,70.09
2019-01-20T08:33:41.888Z,69.33
2019-01-20T08:34:41.892Z,68.78
2019-01-20T08:35:41.895Z,68.12
2019-01-20T08:36:41.831Z,66.71
2019-01-20T08:37:41.822Z,65.74
2019-01-20T08:38:41.810Z,64.42
2019-01-20T08:39:41.797Z,62.81
2019-01-20T08:40:41.787Z,62.29
2019-01-20T08:41:41.774Z,61.29
2019-01-20T08:42:41.769Z,60.46
2019-01-20T08:43:41.751Z,60.10
2019-01-20T08:44:41.741Z,58.95
2019-01-20T08:45:41.736Z,58.72
2019-01-20T08:46:41.722Z,58.28
2019-01-20T08:47:41.711Z,57.73
2019-01-20T08:48:41.700Z,57.29
2019-01-20T08:49:41.685Z,56.34
2019-01-20T08:50:41.675Z,56.13
2019-01-20T08:51:41.664Z,55.48
2019-01-20T08:52:41.659Z,54.84
2019-01-20T08:53:41.640Z,54.29
2019-01-20T08:54:41.630Z,53.80
2019-01-20T08:55:41.617Z,54.11
2019-01-20T08:56:41.611Z,54.60
2019-01-20T08:57:41.597Z,52.92
2019-01-20T08:58:41.582Z,53.21
2019-01-20T08:59:41.572Z,52.80
2019-01-20T09:00:41.561Z,52.90
2019-01-20T09:01:41.550Z,52.46
2019-01-20T09:02:41.541Z,51.51
2019-01-20T09:03:41.528Z,51.07
2019-01-20T09:04:41.515Z,50.53
2019-01-20T09:05:41.502Z,49.81
2019-01-20T09:06:41.550Z,50.30
2019-01-20T09:07:41.480Z,49.87
2019-01-20T09:08:41.468Z,48.71
2019-01-20T09:09:41.458Z,48.30
2019-01-20T09:10:41.446Z,48.38
2019-01-20T09:11:41.437Z,48.13
2019-01-20T09:12:41.425Z,46.69
2019-01-20T09:13:41.413Z,46.07
2019-01-20T09:14:41.406Z,45.95
2019-01-20T09:15:41.389Z,46.13
2019-01-20T09:16:41.380Z,46.11
2019-01-20T09:17:41.366Z,44.36
2019-01-20T09:18:41.360Z,44.94
2019-01-20T09:19:41.352Z,44.51
2019-01-20T09:20:41.337Z,42.97
2019-01-20T09:21:41.322Z,42.54
2019-01-20T09:22:41.314Z,42.52
2019-01-20T09:23:41.302Z,41.88
2019-01-20T09:24:41.288Z,42.79
2019-01-20T09:25:41.278Z,42.19
2019-01-20T09:26:41.272Z,41.44
2019-01-20T09:27:41.255Z,40.93
2019-01-20T09:28:41.246Z,40.61
2019-01-20T09:29:41.233Z,41.56
2019-01-20T09:30:41.221Z,41.97
2019-01-20T09:31:41.215Z,40.70
2019-01-20T09:32:41.219Z,40.27
2019-01-20T09:33:41.196Z,39.72
2019-01-20T09:34:41.176Z,40.01
2019-01-20T09:35:41.163Z,39.31
2019-01-20T09:36:41.152Z,39.09
2019-01-20T09:37:41.141Z,38.26
2019-01-20T09:38:41.136Z,38.24
2019-01-20T09:39:41.121Z,38.75
2019-01-20T09:40:41.107Z,38.11
2019-01-20T09:41:41.100Z,37.39
2019-01-20T09:42:41.085Z,37.12
2019-01-20T09:43:47.095Z,38.11
2019-01-20T09:45:05.544Z,38.33
2019-01-20T09:46:05.537Z,37.27
2019-01-20T09:47:05.519Z,36.76
2019-01-20T09:48:05.510Z,37.15
2019-01-20T09:49:05.497Z,37.15
2019-01-20T09:50:05.495Z,36.46
2019-01-20T09:51:05.477Z,37.18
2019-01-20T09:52:05.463Z,37.31
2019-01-20T09:53:05.451Z,37.49
2019-01-20T09:54:05.448Z,37.37
2019-01-20T09:55:05.435Z,36.78
2019-01-20T09:56:05.418Z,37.49
2019-01-20T09:57:05.407Z,37.78
2019-01-20T09:58:05.394Z,35.83
2019-01-20T09:59:05.421Z,36.64
2019-01-20T10:00:05.372Z,36.74
2019-01-20T10:01:05.360Z,36.73
2019-01-20T10:02:05.349Z,37.18
2019-01-20T10:03:05.337Z,37.17
2019-01-20T10:04:05.327Z,37.25
2019-01-20T10:05:05.316Z,37.09
2019-01-20T10:06:05.305Z,36.86
2019-01-20T10:07:05.295Z,37.23
2019-01-20T10:08:05.285Z,36.38
2019-01-20T10:09:05.278Z,35.69
2019-01-20T10:10:05.262Z,36.71
2019-01-20T10:11:05.249Z,36.20
2019-01-20T10:12:05.238Z,35.98
2019-01-20T10:13:05.233Z,36.08
2019-01-20T10:14:05.217Z,35.61
2019-01-20T10:15:05.204Z,36.73
2019-01-20T10:16:05.197Z,37.34
2019-01-20T10:17:05.189Z,36.54
2019-01-20T10:18:05.179Z,36.79
2019-01-20T10:19:05.166Z,37.75
2019-01-20T10:20:05.149Z,38.07
2019-01-20T10:21:05.161Z,37.93
2019-01-20T10:22:05.128Z,36.56
2019-01-20T10:23:05.124Z,36.71
2019-01-20T10:24:05.106Z,35.76
2019-01-20T10:25:05.095Z,35.17
2019-01-20T10:26:05.086Z,35.79
2019-01-20T10:27:05.070Z,35.81
2019-01-20T10:28:05.063Z,36.78
2019-01-20T10:29:05.051Z,37.51
2019-01-20T10:30:05.037Z,37.59
2019-01-20T10:31:06.072Z,37.05
2019-01-20T10:32:05.013Z,35.49
2019-01-20T10:33:05.004Z,35.61
2019-01-20T10:34:04.988Z,36.44
2019-01-20T10:35:04.980Z,35.47
2019-01-20T10:36:04.970Z,35.11
2019-01-20T10:37:04.952Z,33.68
2019-01-20T10:38:04.943Z,33.75
2019-01-20T10:39:04.931Z,32.82
2019-01-20T10:40:04.919Z,32.52
2019-01-20T10:41:04.907Z,33.87
2019-01-20T10:42:04.895Z,33.80
2019-01-20T10:43:04.885Z,34.90
2019-01-20T10:44:04.876Z,33.56
2019-01-20T10:45:04.862Z,33.12
2019-01-20T10:46:04.850Z,33.00
2019-01-20T10:47:04.841Z,32.47
2019-01-20T10:48:04.827Z,31.95
2019-01-20T10:49:05.378Z,31.73
2019-01-20T10:50:04.806Z,31.13
2019-01-20T10:51:04.796Z,31.90
2019-01-20T10:52:04.784Z,32.76
2019-01-20T10:53:04.773Z,33.04
2019-01-20T10:54:04.764Z,32.61
2019-01-20T10:55:04.770Z,32.79
2019-01-20T10:56:04.744Z,31.54
2019-01-20T10:57:04.729Z,32.24
2019-01-20T10:58:04.716Z,30.82
2019-01-20T10:59:04.704Z,31.23
2019-01-20T11:00:04.695Z,31.79
2019-01-20T11:01:04.686Z,33.28
2019-01-20T11:02:04.673Z,34.86
2019-01-20T11:03:04.660Z,34.32
2019-01-20T11:04:04.653Z,34.12
2019-01-20T11:05:04.640Z,34.76
2019-01-20T11:06:04.626Z,35.94
2019-01-20T11:07:04.618Z,35.35
2019-01-20T11:08:04.602Z,34.32
2019-01-20T11:09:04.596Z,35.59
2019-01-20T11:10:04.581Z,36.32
2019-01-20T11:11:04.576Z,35.69
2019-01-20T11:12:04.558Z,35.22
2019-01-20T11:13:04.552Z,33.87
2019-01-20T11:14:09.403Z,33.58
2019-01-20T11:15:04.530Z,34.03
2019-01-20T11:16:04.513Z,35.49
2019-01-20T11:17:04.509Z,36.10
2019-01-20T11:18:04.491Z,35.79
2019-01-20T11:19:04.485Z,35.11
2019-01-20T11:20:04.469Z,34.58
2019-01-20T11:21:04.462Z,34.10
2019-01-20T11:22:04.448Z,33.70
2019-01-20T11:23:04.434Z,35.24
2019-01-20T11:24:04.422Z,35.68
2019-01-20T11:25:04.422Z,35.59
2019-01-20T11:26:04.399Z,35.98
2019-01-20T11:27:04.393Z,35.63
2019-01-20T11:28:04.378Z,34.56
2019-01-20T11:29:04.365Z,33.01
2019-01-20T11:30:04.357Z,32.56
2019-01-20T11:31:04.350Z,32.83
2019-01-20T11:32:04.333Z,30.99
2019-01-20T11:33:04.323Z,30.88
2019-01-20T11:34:04.317Z,30.04
2019-01-20T11:35:04.299Z,30.54
2019-01-20T11:36:04.291Z,29.20
2019-01-20T11:37:04.276Z,29.00
2019-01-20T11:38:04.267Z,29.10
2019-01-20T11:39:04.266Z,29.10
2019-01-20T11:40:04.242Z,29.18
2019-01-20T11:41:04.233Z,28.92
2019-01-20T11:42:04.221Z,29.33
2019-01-20T11:43:04.213Z,29.41
2019-01-20T11:44:04.197Z,28.90
2019-01-20T11:45:04.186Z,28.88
2019-01-20T11:46:04.186Z,28.78
2019-01-20T11:47:04.164Z,29.08
2019-01-20T11:48:04.151Z,29.00
2019-01-20T11:49:04.138Z,29.62
2019-01-20T11:50:04.132Z,29.60
2019-01-20T11:51:04.117Z,29.50
2019-01-20T11:52:04.104Z,28.80
2019-01-20T11:53:04.096Z,29.10
2019-01-20T11:54:04.089Z,29.08
2019-01-20T11:55:04.071Z,28.90
2019-01-20T11:56:04.059Z,28.69
2019-01-20T11:57:04.054Z,28.91
2019-01-20T11:58:04.036Z,29.44
2019-01-20T11:59:04.025Z,30.27
2019-01-20T12:00:04.013Z,29.54
2019-01-20T12:01:04.010Z,29.22
2019-01-20T12:02:04.005Z,29.33
2019-01-20T12:03:03.977Z,29.31
2019-01-20T12:04:03.966Z,29.11
2019-01-20T12:05:03.961Z,29.13
2019-01-20T12:06:03.943Z,28.83
2019-01-20T12:07:03.936Z,30.56
2019-01-20T12:08:03.920Z,30.90
2019-01-20T12:09:03.911Z,31.04
2019-01-20T12:10:03.902Z,32.78
2019-01-20T12:11:03.891Z,32.59
2019-01-20T12:12:03.875Z,32.49
2019-01-20T12:13:03.867Z,31.48
2019-01-20T12:14:03.858Z,32.52
2019-01-20T12:15:03.841Z,32.92
2019-01-20T12:16:03.830Z,32.72
2019-01-20T12:17:03.821Z,33.24
2019-01-20T12:18:03.808Z,33.14
2019-01-20T12:19:03.803Z,33.14
2019-01-20T12:20:03.788Z,33.01
2019-01-20T12:21:03.838Z,32.50
2019-01-20T12:22:03.761Z,31.98
2019-01-20T12:23:03.753Z,31.97
2019-01-20T12:24:03.739Z,31.95
2019-01-20T12:25:03.753Z,31.45
2019-01-20T12:26:03.716Z,31.85
2019-01-20T12:27:03.705Z,32.49
2019-01-20T12:28:03.698Z,33.01
2019-01-20T12:29:03.691Z,33.33
2019-01-20T12:30:03.678Z,33.12
2019-01-20T12:31:03.660Z,32.91
2019-01-20T12:32:03.654Z,32.69
2019-01-20T12:33:03.640Z,31.76
2019-01-20T12:34:03.629Z,31.65
2019-01-20T12:35:03.616Z,31.25
2019-01-20T12:36:03.605Z,31.79
2019-01-20T12:37:03.595Z,32.85
2019-01-20T12:38:03.583Z,33.87
2019-01-20T12:39:03.577Z,33.24
2019-01-20T12:40:03.567Z,32.76
2019-01-20T12:41:03.548Z,33.80
2019-01-20T12:42:03.546Z,33.87
2019-01-20T12:43:03.532Z,32.82
2019-01-20T12:44:03.515Z,33.06
2019-01-20T12:45:03.503Z,33.59
2019-01-20T12:46:03.494Z,34.22
2019-01-20T12:47:03.483Z,33.70
2019-01-20T12:48:03.471Z,34.13
2019-01-20T12:49:03.465Z,35.90
2019-01-20T12:50:03.456Z,35.79
2019-01-20T12:51:03.437Z,35.71
2019-01-20T12:52:03.424Z,35.78
2019-01-20T12:53:03.414Z,35.13
2019-01-20T12:54:03.407Z,35.13
2019-01-20T12:55:03.393Z,35.22
2019-01-20T12:56:03.382Z,34.29
2019-01-20T12:57:03.383Z,33.45
2019-01-20T12:58:03.362Z,33.12
2019-01-20T12:59:03.347Z,32.70
2019-01-20T13:00:03.334Z,32.94
2019-01-20T13:01:03.323Z,33.80
2019-01-20T13:02:03.312Z,34.41
2019-01-20T13:03:03.305Z,34.13
2019-01-20T13:04:03.292Z,35.47
2019-01-20T13:05:03.282Z,35.61
2019-01-20T13:06:03.272Z,36.57
2019-01-20T13:07:03.254Z,37.61
2019-01-20T13:08:03.243Z,38.69
2019-01-20T13:09:03.236Z,38.07
2019-01-20T13:10:03.224Z,38.06
2019-01-20T13:11:03.209Z,38.54
2019-01-20T13:12:03.199Z,38.22
2019-01-20T13:13:03.188Z,37.88
2019-01-20T13:14:03.180Z,37.13
2019-01-20T13:15:03.169Z,35.96
2019-01-20T13:16:03.154Z,35.63
2019-01-20T13:17:03.146Z,35.35
2019-01-20T13:18:03.132Z,36.01
2019-01-20T13:19:03.122Z,37.29
2019-01-20T13:20:03.111Z,38.14
2019-01-20T13:21:03.102Z,39.18
2019-01-20T13:22:03.094Z,38.58
2019-01-20T13:23:03.076Z,39.09
2019-01-20T13:24:03.064Z,40.03
2019-01-20T13:25:03.062Z,39.62
2019-01-20T13:26:03.042Z,39.30
2019-01-20T13:27:03.039Z,39.09
2019-01-20T13:28:03.020Z,39.81
2019-01-20T13:29:03.009Z,39.13
2019-01-20T13:30:02.997Z,40.41
2019-01-20T13:31:02.991Z,42.17
2019-01-20T13:32:02.975Z,41.64
2019-01-20T13:33:02.963Z,41.46
2019-01-20T13:34:02.955Z,42.19
2019-01-20T13:35:02.952Z,42.73
2019-01-20T13:36:07.131Z,42.52
2019-01-20T13:37:02.962Z,42.70
2019-01-20T13:38:02.908Z,42.09
2019-01-20T13:39:02.906Z,42.29
2019-01-20T13:40:02.908Z,44.14
2019-01-20T13:41:02.914Z,44.39
2019-01-20T13:42:02.918Z,45.25
2019-01-20T13:43:02.858Z,46.05
2019-01-20T13:44:02.840Z,45.49
2019-01-20T13:45:02.830Z,44.47
2019-01-20T13:46:02.816Z,44.47
2019-01-20T13:47:02.806Z,44.54
2019-01-20T13:48:02.797Z,44.98
2019-01-20T13:49:02.782Z,46.02
2019-01-20T13:50:02.770Z,46.35
2019-01-20T13:51:02.759Z,46.91
2019-01-20T13:52:02.749Z,47.67
2019-01-20T13:53:02.735Z,48.93
2019-01-20T13:54:02.723Z,49.13
2019-01-20T13:55:02.713Z,49.67
2019-01-20T13:56:02.699Z,50.83
2019-01-20T13:57:02.695Z,50.51
2019-01-20T13:58:02.676Z,51.22
2019-01-20T13:59:02.666Z,49.96
2019-01-20T14:00:02.660Z,50.39
2019-01-20T14:01:02.642Z,50.37
2019-01-20T14:02:02.630Z,50.16
2019-01-20T14:03:02.619Z,51.01
2019-01-20T14:04:02.608Z,50.39
2019-01-20T14:05:02.605Z,50.75
2019-01-20T14:06:02.585Z,52.00
2019-01-20T14:07:02.574Z,52.88
2019-01-20T14:08:02.565Z,54.01
2019-01-20T14:09:02.552Z,54.14
2019-01-20T14:10:02.539Z,53.37
2019-01-20T14:11:02.529Z,53.27
2019-01-20T14:12:02.517Z,53.06
2019-01-20T14:13:02.510Z,53.27
2019-01-20T14:14:02.499Z,52.73
2019-01-20T14:15:02.488Z,53.06
2019-01-20T14:16:02.487Z,53.06
2019-01-20T14:17:02.468Z,52.78
2019-01-20T14:18:02.467Z,53.68
2019-01-20T14:19:02.440Z,52.75
2019-01-20T14:20:02.431Z,53.52
2019-01-20T14:21:02.417Z,54.40
2019-01-20T14:22:02.406Z,55.56
2019-01-20T14:23:02.399Z,56.20
2019-01-20T14:24:02.390Z,56.23
2019-01-20T14:25:02.374Z,57.60
2019-01-20T14:26:02.362Z,57.39
2019-01-20T14:27:02.353Z,57.81
2019-01-20T14:28:02.343Z,58.14
2019-01-20T14:29:02.330Z,58.84
2019-01-20T14:30:02.322Z,57.91
2019-01-20T14:31:02.309Z,57.94
2019-01-20T14:32:02.298Z,58.04
2019-01-20T14:33:02.294Z,58.35
2019-01-20T14:34:02.280Z,58.33
2019-01-20T14:35:02.265Z,57.50
2019-01-20T14:36:02.253Z,58.04
2019-01-20T14:37:02.242Z,58.04
2019-01-20T14:38:02.239Z,57.60
2019-01-20T14:39:02.225Z,57.83
2019-01-20T14:40:02.210Z,57.50
2019-01-20T14:41:02.201Z,57.83
2019-01-20T14:42:02.191Z,58.25
2019-01-20T14:43:02.175Z,57.83
2019-01-20T14:44:02.171Z,58.25
2019-01-20T14:45:02.159Z,58.07
2019-01-20T14:46:02.142Z,58.48
2019-01-20T14:47:02.129Z,59.03
2019-01-20T14:48:02.125Z,59.88
2019-01-20T14:49:02.107Z,60.11
2019-01-20T14:50:02.096Z,60.09
2019-01-20T14:51:02.087Z,60.19
2019-01-20T14:52:02.072Z,59.85
2019-01-20T14:53:02.062Z,59.41
2019-01-20T14:54:02.050Z,59.62
2019-01-20T14:55:02.041Z,59.08
2019-01-20T14:56:02.030Z,58.66
2019-01-20T14:57:02.016Z,58.14
2019-01-20T14:58:02.006Z,58.45
2019-01-20T14:59:01.993Z,59.21
2019-01-20T15:00:01.983Z,59.31
2019-01-20T15:01:01.971Z,59.08
2019-01-20T15:02:01.962Z,58.87
2019-01-20T15:03:01.958Z,59.08
2019-01-20T15:04:01.937Z,59.08
2019-01-20T15:05:01.926Z,58.97
2019-01-20T15:06:01.915Z,58.56
2019-01-20T15:07:01.903Z,58.56
2019-01-20T15:08:01.896Z,58.56
2019-01-20T15:09:01.879Z,58.66
2019-01-20T15:10:01.868Z,59.08
2019-01-20T15:11:01.855Z,58.69
2019-01-20T15:12:01.851Z,59.85
2019-01-20T15:13:01.841Z,60.06
2019-01-20T15:14:01.824Z,59.75
2019-01-20T15:15:08.665Z,59.72
2019-01-20T15:16:26.284Z,59.52
2019-01-20T15:17:26.269Z,59.55
2019-01-20T15:18:26.258Z,59.52
2019-01-20T15:19:26.253Z,59.31
2019-01-20T15:20:26.241Z,59.88
2019-01-20T15:21:26.231Z,60.53
2019-01-20T15:22:26.214Z,60.40
2019-01-20T15:23:26.203Z,60.51
2019-01-20T15:24:31.105Z,60.84
2019-01-20T15:25:26.182Z,60.40
2019-01-20T15:26:26.175Z,60.63
2019-01-20T15:27:26.164Z,60.61
2019-01-20T15:28:26.145Z,61.02
2019-01-20T15:29:26.134Z,60.51
2019-01-20T15:30:26.124Z,60.40
2019-01-20T15:31:26.110Z,60.40
2019-01-20T15:32:26.100Z,59.88
2019-01-20T15:33:26.090Z,60.51
2019-01-20T15:34:26.077Z,61.05
2019-01-20T15:35:26.067Z,61.15
2019-01-20T15:36:26.054Z,61.91
2019-01-20T15:37:26.044Z,61.60
2019-01-20T15:38:26.033Z,62.48
2019-01-20T15:39:26.021Z,62.82
2019-01-20T15:40:26.012Z,63.31
2019-01-20T15:41:25.999Z,63.11
2019-01-20T15:42:25.990Z,63.52
2019-01-20T15:43:25.977Z,63.52
2019-01-20T15:44:25.967Z,63.42
2019-01-20T15:45:25.955Z,63.29
2019-01-20T15:46:25.944Z,62.69
2019-01-20T15:47:25.935Z,63.00
2019-01-20T15:48:25.923Z,63.11
2019-01-20T15:49:25.912Z,62.69
2019-01-20T15:50:25.899Z,63.62
2019-01-20T15:51:25.897Z,63.62
2019-01-20T15:52:25.877Z,63.62
2019-01-20T15:53:25.867Z,63.52
2019-01-20T15:54:25.855Z,63.39
2019-01-20T15:55:25.845Z,63.31
2019-01-20T15:56:25.834Z,63.83
2019-01-20T15:57:25.824Z,63.42
2019-01-20T15:58:26.790Z,64.17
2019-01-20T15:59:25.801Z,63.62
2019-01-20T16:00:25.789Z,63.76
2019-01-20T16:01:25.780Z,63.73
2019-01-20T16:02:25.772Z,63.52
2019-01-20T16:03:25.756Z,63.52
2019-01-20T16:06:25.730Z,62.77
2019-01-20T16:07:25.714Z,61.96
2019-01-20T16:08:25.701Z,62.17
2019-01-20T16:09:25.693Z,61.86
2019-01-20T16:10:25.680Z,61.86
2019-01-20T16:11:25.672Z,61.86
2019-01-20T16:12:25.661Z,62.59
2019-01-20T16:13:25.651Z,62.79
2019-01-20T16:14:25.642Z,62.69
2019-01-20T16:15:25.624Z,62.07
2019-01-20T16:16:25.616Z,61.86
2019-01-20T16:17:25.602Z,62.79
2019-01-20T16:18:25.590Z,63.24
2019-01-20T16:19:25.578Z,63.45
2019-01-20T16:20:25.570Z,63.24
2019-01-20T16:21:25.556Z,62.48
2019-01-20T16:22:25.545Z,63.21
2019-01-20T16:23:25.535Z,62.79
2019-01-20T16:24:25.526Z,61.96
2019-01-20T16:25:25.514Z,62.41
2019-01-20T16:26:25.502Z,63.45
2019-01-20T16:27:25.490Z,63.69
2019-01-20T16:28:25.485Z,63.58
2019-01-20T16:29:25.471Z,64.44
2019-01-20T16:30:25.455Z,64.75
2019-01-20T16:31:25.451Z,64.78
2019-01-20T16:32:25.433Z,64.55
2019-01-20T16:33:25.423Z,64.78
2019-01-20T16:34:25.426Z,64.96
2019-01-20T16:35:25.400Z,65.79
2019-01-20T16:36:25.392Z,64.34
2019-01-20T16:37:25.377Z,64.34
2019-01-20T16:38:25.370Z,64.03
2019-01-20T16:39:25.767Z,64.44
2019-01-20T16:40:25.344Z,64.44
2019-01-20T16:41:25.332Z,64.55
2019-01-20T16:42:25.343Z,64.93
2019-01-20T16:43:25.310Z,64.72
2019-01-20T16:45:31.934Z,64.41
2019-01-20T16:46:26.303Z,64.20
2019-01-20T16:50:25.237Z,63.17
2019-01-20T16:55:25.174Z,63.72
2019-01-20T17:04:25.070Z,65.23
2019-01-20T17:11:24.996Z,65.50
2019-01-20T17:15:24.947Z,66.88
2019-01-20T17:17:24.926Z,67.74
2019-01-20T17:18:24.914Z,67.23
2019-01-20T17:19:24.903Z,67.74
2019-01-20T17:20:24.891Z,67.74
2019-01-20T17:21:24.884Z,67.74
2019-01-20T17:23:24.857Z,67.64
2019-01-20T17:24:24.853Z,67.85
2019-01-20T17:25:24.837Z,68.06
2019-01-20T17:26:24.827Z,68.06
2019-01-20T17:27:24.820Z,67.64
2019-01-20T17:28:24.809Z,67.85
2019-01-20T17:29:24.792Z,67.40
2019-01-20T17:30:24.784Z,67.64
2019-01-20T17:31:24.777Z,68.20
2019-01-20T17:32:24.764Z,68.71
2019-01-20T17:33:24.750Z,69.13
2019-01-20T17:34:24.737Z,69.13
2019-01-20T17:35:24.729Z,69.13
2019-01-20T17:36:24.715Z,69.17
2019-01-20T17:37:24.705Z,69.24
2019-01-20T17:38:24.694Z,69.03
2019-01-20T17:39:24.684Z,69.45
2019-01-20T17:40:24.676Z,69.24
2019-01-20T17:41:24.669Z,69.13
2019-01-20T17:42:24.650Z,69.10
2019-01-20T17:43:24.640Z,69.00
2019-01-20T17:44:24.631Z,69.00
2019-01-20T17:45:24.620Z,69.00
2019-01-20T17:46:24.609Z,68.79
2019-01-20T17:47:24.597Z,68.24
2019-01-20T17:50:24.564Z,67.40
2019-01-20T17:51:24.554Z,67.40
2019-01-20T17:52:24.550Z,67.40
2019-01-20T17:53:24.531Z,67.12
2019-01-20T17:54:24.523Z,68.48
2019-01-20T17:55:24.519Z,68.40
2019-01-20T18:07:24.378Z,69.45
2019-01-20T18:08:24.371Z,68.71
2019-01-20T18:10:24.345Z,68.82
2019-01-20T18:12:24.325Z,68.40
2019-01-20T18:13:24.314Z,67.77
2019-01-20T18:14:24.301Z,68.40
2019-01-20T18:15:24.293Z,68.40
2019-01-20T18:16:24.279Z,68.61
2019-01-20T18:17:24.276Z,69.17
2019-01-20T18:18:24.262Z,69.27
2019-01-20T18:19:24.256Z,69.37
2019-01-20T18:20:24.238Z,69.37
2019-01-20T18:21:24.229Z,69.72
2019-01-20T18:32:24.106Z,71.66
2019-01-20T18:42:23.998Z,70.72
2019-01-20T18:43:23.985Z,71.11
2019-01-20T18:44:23.984Z,71.00
2019-01-20T18:45:23.987Z,71.14
2019-01-20T18:46:24.000Z,71.21
2019-01-20T18:49:23.940Z,70.55
2019-01-20T18:50:23.946Z,70.24
2019-01-20T18:53:23.875Z,71.42
2019-01-20T18:55:23.857Z,71.18
2019-01-20T18:56:23.842Z,70.83
2019-01-20T18:57:23.832Z,70.94
2019-01-20T18:58:23.826Z,69.65
2019-01-20T18:59:23.810Z,69.68
2019-01-20T19:00:23.803Z,69.58
2019-01-20T19:01:23.796Z,69.89
2019-01-20T19:02:23.776Z,69.89
2019-01-20T19:03:23.765Z,69.93
2019-01-20T19:04:23.759Z,69.82
2019-01-20T19:05:23.743Z,69.61
2019-01-20T19:06:23.732Z,69.51
2019-01-20T19:07:23.721Z,69.72
2019-01-20T19:08:23.710Z,69.37
2019-01-20T19:09:23.698Z,69.48
2019-01-20T19:10:23.687Z,68.95
2019-01-20T19:11:23.678Z,69.17
2019-01-20T19:12:23.670Z,69.89
2019-01-20T19:13:23.657Z,69.89
2019-01-20T19:14:23.645Z,69.68
2019-01-20T19:15:23.639Z,69.79
2019-01-20T19:16:23.622Z,69.37
2019-01-20T19:17:23.611Z,68.85
2019-01-20T19:18:23.599Z,68.64
2019-01-20T19:19:23.589Z,69.03
2019-01-20T19:20:23.586Z,69.27
2019-01-20T19:21:23.566Z,69.48
2019-01-20T19:22:23.555Z,69.72
2019-01-20T19:23:23.546Z,69.82
2019-01-20T19:28:23.488Z,69.93
2019-01-20T19:29:23.481Z,70.34
2019-01-20T19:30:23.471Z,69.72
2019-01-20T19:31:23.455Z,69.20
2019-01-20T19:32:23.443Z,69.48
2019-01-20T19:33:23.434Z,69.37
2019-01-20T19:34:23.424Z,69.68
2019-01-20T19:35:23.408Z,69.68
2019-01-20T19:36:23.398Z,69.17
2019-01-20T19:37:23.390Z,68.64
2019-01-20T19:38:23.381Z,69.17
2019-01-20T19:39:23.370Z,68.92
2019-01-20T19:40:23.353Z,69.17
2019-01-20T19:41:23.341Z,69.17
2019-01-20T19:42:23.330Z,69.06
2019-01-20T19:43:23.318Z,68.92
2019-01-20T19:44:23.308Z,69.03
2019-01-20T19:45:23.302Z,68.95
2019-01-20T19:46:23.286Z,69.27
2019-01-20T19:47:23.275Z,68.61
2019-01-20T19:48:23.265Z,68.92
2019-01-20T19:49:23.253Z,69.24
2019-01-20T19:50:23.249Z,69.13
2019-01-20T19:51:23.235Z,69.03
2019-01-20T19:52:23.220Z,69.03
2019-01-20T19:53:23.211Z,69.37
2019-01-20T19:54:23.200Z,69.17
2019-01-20T19:55:24.177Z,69.37
2019-01-20T19:56:23.173Z,69.79
2019-01-20T19:57:23.162Z,69.58
2019-01-20T19:58:23.154Z,69.58
2019-01-20T19:59:23.146Z,70.03
2019-01-20T20:00:23.130Z,70.14
2019-01-20T20:01:23.125Z,70.48
2019-01-20T20:03:23.096Z,70.48
2019-01-20T20:04:23.083Z,70.55
2019-01-20T20:05:23.072Z,70.58
2019-01-20T20:06:23.063Z,70.90
2019-01-20T20:08:23.041Z,71.00
2019-01-20T20:11:23.035Z,70.34
2019-01-20T20:17:22.942Z,70.62
2019-01-20T23:00:21.127Z,69.93
